createdAt,value
2023-04-20T00:01:58.184Z,70.10
2023-04-20T00:04:24.666Z,69.88
2023-04-20T00:06:51.071Z,68.97
2023-04-20T00:09:17.559Z,68.48
2023-04-20T00:11:44.028Z,68.72
2023-04-20T00:14:10.409Z,68.72
2023-04-20T00:16:36.883Z,68.01
2023-04-20T00:19:03.352Z,68.10
2023-04-20T00:21:29.825Z,68.01
2023-04-20T00:23:56.230Z,68.36
2023-04-20T00:26:22.807Z,68.57
2023-04-20T00:28:49.191Z,68.67
2023-04-20T00:31:15.622Z,69.32
2023-04-20T00:33:42.307Z,68.65
2023-04-20T00:36:08.635Z,69.77
2023-04-20T00:38:35.001Z,70.51
2023-04-20T00:41:01.334Z,70.81
2023-04-20T00:43:28.728Z,69.86
2023-04-20T00:45:55.116Z,70.15
2023-04-20T00:48:21.537Z,69.83
2023-04-20T00:50:48.005Z,69.70
2023-04-20T00:53:14.388Z,71.77
2023-04-20T00:55:40.788Z,70.54
2023-04-20T00:58:07.249Z,71.44
2023-04-20T01:00:33.632Z,71.15
2023-04-20T01:03:00.220Z,70.84
2023-04-20T01:05:26.693Z,71.05
2023-04-20T01:07:53.202Z,70.70
2023-04-20T01:10:22.187Z,69.88
2023-04-20T01:12:48.650Z,70.16
2023-04-20T01:15:18.192Z,69.79
2023-04-20T01:17:46.916Z,70.39
2023-04-20T01:20:14.133Z,70.83
2023-04-20T01:22:40.518Z,69.77
2023-04-20T01:25:06.911Z,69.47
2023-04-20T01:27:33.288Z,69.54
2023-04-20T01:30:00.216Z,69.73
2023-04-20T01:32:26.703Z,69.75
2023-04-20T01:34:53.077Z,68.76
2023-04-20T01:37:19.441Z,68.93
2023-04-20T01:39:45.874Z,68.97
2023-04-20T01:42:12.552Z,68.90
2023-04-20T01:44:38.889Z,69.11
2023-04-20T01:47:05.414Z,69.45
2023-04-20T01:49:31.883Z,68.53
2023-04-20T01:51:58.340Z,68.67
2023-04-20T01:54:24.801Z,68.12
2023-04-20T01:56:51.405Z,68.42
2023-04-20T01:59:18.072Z,69.26
2023-04-20T02:01:44.564Z,70.05
2023-04-20T02:04:10.937Z,70.07
2023-04-20T02:06:37.645Z,69.90
2023-04-20T02:09:03.979Z,70.09
2023-04-20T02:11:30.455Z,69.35
2023-04-20T02:13:58.052Z,68.65
2023-04-20T02:16:24.698Z,68.73
2023-04-20T02:18:51.134Z,69.47
2023-04-20T02:21:17.833Z,69.08
2023-04-20T02:23:44.225Z,68.97
2023-04-20T02:26:10.566Z,68.80
2023-04-20T02:28:38.012Z,68.51
2023-04-20T02:31:04.454Z,68.98
2023-04-20T02:33:30.865Z,69.43
2023-04-20T02:35:57.227Z,69.46
2023-04-20T02:38:23.727Z,70.13
2023-04-20T02:40:50.136Z,70.37
2023-04-20T02:43:16.922Z,70.94
2023-04-20T02:45:43.313Z,70.56
2023-04-20T02:48:09.829Z,70.06
2023-04-20T02:50:36.288Z,69.24
2023-04-20T02:53:02.773Z,69.40
2023-04-20T02:55:29.232Z,69.70
2023-04-20T02:57:58.316Z,69.37
2023-04-20T03:00:24.694Z,69.26
2023-04-20T03:02:51.146Z,69.34
2023-04-20T03:05:17.553Z,68.76
2023-04-20T03:07:44.008Z,68.48
2023-04-20T03:10:10.374Z,68.68
2023-04-20T03:12:36.932Z,68.20
2023-04-20T03:15:03.329Z,68.51
2023-04-20T03:17:29.726Z,68.66
2023-04-20T03:19:56.122Z,68.85
2023-04-20T03:22:22.753Z,68.26
2023-04-20T03:24:50.797Z,69.06
2023-04-20T03:27:19.206Z,68.82
2023-04-20T03:29:45.593Z,68.62
2023-04-20T03:32:12.059Z,68.23
2023-04-20T03:34:38.455Z,68.55
2023-04-20T03:37:04.820Z,69.46
2023-04-20T03:39:31.166Z,70.16
2023-04-20T03:41:57.604Z,69.36
2023-04-20T03:44:24.030Z,69.82
2023-04-20T03:46:50.409Z,69.62
2023-04-20T03:49:16.990Z,69.94
2023-04-20T03:51:43.642Z,68.93
2023-04-20T03:54:10.021Z,68.71
2023-04-20T03:56:36.364Z,68.62
2023-04-20T03:59:02.704Z,69.08
2023-04-20T04:01:29.135Z,69.77
2023-04-20T04:03:55.874Z,70.54
2023-04-20T04:06:24.846Z,70.25
2023-04-20T04:08:51.303Z,70.21
2023-04-20T04:11:17.698Z,70.03
2023-04-20T04:13:44.072Z,69.52
2023-04-20T04:16:10.480Z,69.91
2023-04-20T04:18:36.956Z,70.57
2023-04-20T04:21:03.670Z,70.60
2023-04-20T04:23:30.302Z,70.14
2023-04-20T04:25:56.890Z,70.56
2023-04-20T04:28:25.619Z,71.96
2023-04-20T04:30:52.037Z,71.04
2023-04-20T04:33:18.473Z,71.12
2023-04-20T04:35:44.877Z,70.71
2023-04-20T04:38:11.328Z,70.63
2023-04-20T04:40:37.980Z,70.67
2023-04-20T04:43:04.373Z,69.74
2023-04-20T04:45:30.765Z,70.04
2023-04-20T04:47:57.221Z,70.21
2023-04-20T04:50:23.797Z,69.66
2023-04-20T04:52:50.408Z,69.52
2023-04-20T04:55:16.838Z,69.36
2023-04-20T04:57:43.762Z,69.21
2023-04-20T05:00:10.262Z,69.59
2023-04-20T05:02:37.258Z,69.96
2023-04-20T05:05:03.927Z,69.54
2023-04-20T05:07:31.408Z,69.63
2023-04-20T05:09:58.273Z,69.60
2023-04-20T05:12:24.613Z,69.54
2023-04-20T05:14:50.943Z,70.38
2023-04-20T05:17:17.512Z,70.40
2023-04-20T05:19:43.965Z,69.68
2023-04-20T05:22:10.324Z,70.38
2023-04-20T05:24:36.864Z,69.29
2023-04-20T05:27:03.607Z,69.19
2023-04-20T05:29:29.996Z,69.11
2023-04-20T05:31:56.376Z,68.83
2023-04-20T05:34:22.822Z,68.85
2023-04-20T05:36:49.219Z,69.51
2023-04-20T05:39:16.060Z,69.44
2023-04-20T05:41:42.555Z,69.88
2023-04-20T05:44:09.434Z,70.66
2023-04-20T05:46:35.901Z,70.32
2023-04-20T05:49:02.396Z,70.56
2023-04-20T05:51:29.845Z,70.40
2023-04-20T05:53:57.263Z,70.00
2023-04-20T05:56:23.630Z,69.40
2023-04-20T05:58:50.257Z,69.58
2023-04-20T06:01:16.666Z,68.77
2023-04-20T06:03:43.167Z,69.37
2023-04-20T06:06:09.656Z,70.07
2023-04-20T06:08:36.044Z,71.45
2023-04-20T06:11:02.394Z,71.42
2023-04-20T06:13:28.839Z,71.59
2023-04-20T06:16:02.669Z,73.28
2023-04-20T06:18:29.340Z,73.64
2023-04-20T06:20:55.743Z,73.19
2023-04-20T06:23:22.418Z,73.32
2023-04-20T06:25:49.840Z,74.14
2023-04-20T06:28:16.557Z,74.18
2023-04-20T06:30:43.296Z,74.04
2023-04-20T06:33:11.903Z,74.24
2023-04-20T06:35:39.853Z,74.20
2023-04-20T06:38:06.389Z,73.57
2023-04-20T06:40:32.781Z,73.12
2023-04-20T06:42:59.142Z,72.60
2023-04-20T06:45:28.526Z,72.42
2023-04-20T06:47:57.458Z,72.38
2023-04-20T06:50:23.801Z,71.22
2023-04-20T06:52:50.231Z,71.23
2023-04-20T06:55:17.654Z,71.46
2023-04-20T06:57:44.075Z,71.44
2023-04-20T07:00:12.751Z,71.76
2023-04-20T07:02:40.233Z,72.42
2023-04-20T07:05:07.696Z,73.26
2023-04-20T07:07:34.052Z,73.35
2023-04-20T07:10:00.557Z,73.00
2023-04-20T07:12:27.110Z,73.28
2023-04-20T07:14:54.244Z,73.09
2023-04-20T07:17:23.567Z,72.24
2023-04-20T07:19:49.960Z,71.79
2023-04-20T07:22:16.437Z,71.89
2023-04-20T07:24:42.819Z,72.49
2023-04-20T07:27:09.164Z,73.00
2023-04-20T07:29:36.524Z,73.02
2023-04-20T07:32:02.968Z,72.15
2023-04-20T07:34:29.356Z,72.10
2023-04-20T07:36:55.698Z,71.95
2023-04-20T07:39:22.438Z,71.75
2023-04-20T07:41:48.924Z,71.57
2023-04-20T07:44:15.347Z,72.22
2023-04-20T07:46:41.725Z,72.07
2023-04-20T07:49:09.811Z,72.20
2023-04-20T07:51:36.771Z,72.52
2023-04-20T07:54:03.152Z,73.37
2023-04-20T07:56:29.530Z,73.05
2023-04-20T07:58:56.204Z,73.41
2023-04-20T08:01:22.593Z,73.64
2023-04-20T08:03:49.275Z,74.15
2023-04-20T08:06:15.820Z,73.25
2023-04-20T08:08:44.631Z,74.24
2023-04-20T08:11:11.013Z,74.68
2023-04-20T08:13:37.501Z,74.79
2023-04-20T08:16:06.270Z,74.49
2023-04-20T08:18:32.922Z,74.71
2023-04-20T08:21:01.466Z,76.10
2023-04-20T08:23:30.752Z,77.02
2023-04-20T08:25:57.246Z,76.28
2023-04-20T08:28:33.351Z,76.90
2023-04-20T08:31:00.795Z,76.70
2023-04-20T08:33:29.289Z,77.32
2023-04-20T08:35:57.876Z,79.00
2023-04-20T08:38:33.387Z,78.93
2023-04-20T08:41:01.708Z,79.65
2023-04-20T08:43:28.212Z,79.75
2023-04-20T08:45:54.615Z,79.55
2023-04-20T08:48:21.164Z,78.03
2023-04-20T08:50:47.781Z,79.57
2023-04-20T08:53:15.825Z,79.65
2023-04-20T08:55:42.314Z,79.11
2023-04-20T08:58:08.775Z,79.14
2023-04-20T09:00:35.239Z,78.10
2023-04-20T09:03:01.972Z,78.37
2023-04-20T09:05:29.240Z,78.47
2023-04-20T09:07:55.751Z,78.56
2023-04-20T09:10:22.355Z,78.93
2023-04-20T09:12:49.055Z,78.90
2023-04-20T09:15:16.935Z,79.23
2023-04-20T09:17:45.651Z,79.28
2023-04-20T09:20:12.588Z,78.74
2023-04-20T09:22:38.964Z,79.26
2023-04-20T09:25:05.874Z,78.79
2023-04-20T09:27:32.241Z,77.58
2023-04-20T09:29:58.870Z,76.43
2023-04-20T09:32:25.429Z,75.75
2023-04-20T09:34:56.782Z,74.95
2023-04-20T09:37:23.251Z,74.66
2023-04-20T09:39:49.865Z,74.76
2023-04-20T09:42:17.278Z,75.47
2023-04-20T09:44:50.987Z,75.07
2023-04-20T09:47:17.329Z,74.85
2023-04-20T09:49:43.816Z,74.89
2023-04-20T09:52:10.193Z,74.61
2023-04-20T09:54:36.592Z,74.99
2023-04-20T09:57:05.534Z,75.29
2023-04-20T09:59:32.024Z,74.80
2023-04-20T10:02:00.754Z,74.45
2023-04-20T10:04:27.560Z,73.49
2023-04-20T10:06:54.148Z,73.37
2023-04-20T10:09:20.493Z,73.52
2023-04-20T10:11:53.885Z,73.94
2023-04-20T10:14:21.946Z,74.61
2023-04-20T10:16:48.333Z,74.23
2023-04-20T10:19:14.750Z,73.31
2023-04-20T10:21:41.270Z,74.45
2023-04-20T10:24:09.686Z,77.54
2023-04-20T10:26:36.040Z,77.15
2023-04-20T10:29:03.433Z,77.27
2023-04-20T10:31:31.100Z,78.65
2023-04-20T10:33:57.539Z,80.84
2023-04-20T10:36:23.911Z,79.79
2023-04-20T10:38:50.299Z,79.65
2023-04-20T10:41:16.711Z,79.12
2023-04-20T10:43:43.418Z,79.55
2023-04-20T10:46:10.052Z,80.70
2023-04-20T10:48:36.461Z,80.98
2023-04-20T10:51:02.862Z,79.59
2023-04-20T10:53:29.336Z,80.05
2023-04-20T10:55:55.664Z,78.80
2023-04-20T10:58:22.396Z,78.55
2023-04-20T11:00:49.040Z,77.55
2023-04-20T11:03:17.081Z,75.81
2023-04-20T11:05:44.969Z,76.28
2023-04-20T11:08:11.868Z,76.40
2023-04-20T11:10:38.421Z,74.51
2023-04-20T11:13:06.299Z,75.16
2023-04-20T11:15:32.688Z,73.32
2023-04-20T11:18:01.448Z,73.63
2023-04-20T11:20:27.855Z,74.16
2023-04-20T11:22:56.554Z,74.43
2023-04-20T11:25:22.936Z,75.94
2023-04-20T11:27:49.518Z,75.67
2023-04-20T11:30:15.922Z,75.42
2023-04-20T11:32:42.603Z,74.35
2023-04-20T11:35:10.193Z,72.90
2023-04-20T11:37:36.792Z,73.15
2023-04-20T11:40:03.673Z,73.75
2023-04-20T11:42:30.129Z,73.83
2023-04-20T11:44:56.516Z,74.20
2023-04-20T11:47:23.205Z,72.24
2023-04-20T11:49:49.641Z,71.73
2023-04-20T11:52:16.012Z,73.63
2023-04-20T11:54:42.382Z,73.85
2023-04-20T11:57:08.776Z,74.85
2023-04-20T11:59:35.421Z,75.08
2023-04-20T12:02:01.897Z,76.37
2023-04-20T12:04:32.967Z,75.99
2023-04-20T12:06:59.768Z,76.69
2023-04-20T12:09:26.175Z,75.50
2023-04-20T12:11:52.606Z,76.86
2023-04-20T12:14:18.987Z,74.16
2023-04-20T12:16:45.379Z,73.71
2023-04-20T12:19:11.997Z,73.70
2023-04-20T12:21:38.591Z,73.03
2023-04-20T12:24:04.943Z,73.37
2023-04-20T12:26:38.288Z,72.65
2023-04-20T12:29:05.240Z,73.37
2023-04-20T12:31:31.721Z,70.87
2023-04-20T12:33:58.504Z,71.34
2023-04-20T12:36:24.953Z,72.91
2023-04-20T12:38:51.412Z,71.72
2023-04-20T12:41:17.797Z,71.43
2023-04-20T12:43:44.514Z,71.67
2023-04-20T12:46:10.960Z,72.04
2023-04-20T12:48:37.358Z,71.39
2023-04-20T12:51:07.025Z,71.66
2023-04-20T12:53:33.358Z,71.07
2023-04-20T12:56:01.371Z,71.24
2023-04-20T12:58:27.905Z,71.25
2023-04-20T13:00:54.428Z,71.85
2023-04-20T13:03:22.237Z,72.25
2023-04-20T13:05:48.752Z,71.46
2023-04-20T13:08:15.133Z,70.67
2023-04-20T13:10:41.470Z,70.46
2023-04-20T13:13:07.873Z,71.08
2023-04-20T13:15:39.274Z,72.02
2023-04-20T13:18:06.106Z,71.60
2023-04-20T13:20:32.639Z,71.59
2023-04-20T13:22:59.034Z,70.61
2023-04-20T13:25:25.485Z,70.24
2023-04-20T13:27:51.870Z,69.54
2023-04-20T13:30:18.278Z,69.81
2023-04-20T13:32:44.618Z,69.15
2023-04-20T13:35:10.999Z,69.59
2023-04-20T13:37:39.165Z,69.51
2023-04-20T13:40:05.829Z,68.93
2023-04-20T13:42:32.255Z,70.33
2023-04-20T13:44:58.704Z,71.47
2023-04-20T13:47:25.407Z,70.79
2023-04-20T13:49:51.818Z,70.36
2023-04-20T13:52:18.196Z,69.83
2023-04-20T13:54:44.589Z,70.67
2023-04-20T13:57:10.970Z,70.34
2023-04-20T13:59:39.447Z,70.02
2023-04-20T14:02:05.827Z,69.75
2023-04-20T14:04:32.399Z,70.29
2023-04-20T14:06:59.036Z,69.81
2023-04-20T14:09:25.461Z,70.38
2023-04-20T14:11:55.683Z,69.96
2023-04-20T14:14:27.921Z,68.07
2023-04-20T14:17:02.211Z,70.17
2023-04-20T14:19:31.654Z,70.35
2023-04-20T14:21:59.268Z,71.26
2023-04-20T14:24:25.890Z,70.88
2023-04-20T14:26:52.214Z,72.29
2023-04-20T14:29:18.685Z,72.11
2023-04-20T14:31:45.279Z,71.89
2023-04-20T14:34:12.312Z,72.13
2023-04-20T14:36:39.044Z,72.74
2023-04-20T14:39:05.396Z,72.42
2023-04-20T14:41:33.586Z,72.26
2023-04-20T14:44:00.220Z,72.13
2023-04-20T14:46:28.886Z,72.15
2023-04-20T14:48:57.102Z,71.69
2023-04-20T14:51:23.984Z,71.69
2023-04-20T14:53:50.540Z,72.73
2023-04-20T14:56:17.012Z,73.29
2023-04-20T14:58:43.394Z,71.72
2023-04-20T15:01:09.746Z,71.95
2023-04-20T15:03:36.765Z,73.73
2023-04-20T15:06:03.691Z,72.92
2023-04-20T15:08:32.389Z,71.84
2023-04-20T15:10:58.770Z,73.41
2023-04-20T15:13:25.131Z,72.75
2023-04-20T15:15:54.201Z,72.09
2023-04-20T15:18:21.579Z,71.65
2023-04-20T15:20:48.207Z,71.75
2023-04-20T15:23:14.572Z,72.30
2023-04-20T15:25:41.186Z,70.85
2023-04-20T15:28:07.752Z,70.55
2023-04-20T15:30:34.195Z,69.68
2023-04-20T15:33:04.811Z,70.04
2023-04-20T15:35:32.299Z,71.28
2023-04-20T15:38:02.214Z,71.19
2023-04-20T15:40:29.192Z,71.50
2023-04-20T15:42:55.591Z,71.58
2023-04-20T15:45:22.098Z,70.69
2023-04-20T15:47:50.779Z,70.82
2023-04-20T15:50:18.066Z,69.13
2023-04-20T15:52:44.578Z,70.61
2023-04-20T15:55:11.133Z,69.56
2023-04-20T15:57:37.868Z,69.38
2023-04-20T16:00:04.508Z,69.69
2023-04-20T16:02:30.989Z,69.96
2023-04-20T16:04:57.571Z,69.37
2023-04-20T16:07:25.924Z,69.17
2023-04-20T16:09:52.378Z,68.41
2023-04-20T16:12:19.103Z,67.44
2023-04-20T16:14:45.920Z,65.03
2023-04-20T16:17:13.317Z,64.86
2023-04-20T16:19:40.458Z,63.71
2023-04-20T16:22:06.911Z,63.11
2023-04-20T16:24:35.813Z,62.30
2023-04-20T16:27:02.688Z,63.65
2023-04-20T16:29:29.041Z,64.59
2023-04-20T16:31:55.540Z,64.74
2023-04-20T16:34:22.228Z,66.06
2023-04-20T16:36:48.688Z,66.31
2023-04-20T16:39:15.313Z,66.01
2023-04-20T16:41:43.703Z,67.55
2023-04-20T16:44:10.094Z,68.72
2023-04-20T16:46:36.748Z,67.61
2023-04-20T16:49:03.288Z,67.04
2023-04-20T16:51:30.677Z,68.75
2023-04-20T16:53:57.032Z,68.50
2023-04-20T16:56:23.359Z,68.33
2023-04-20T16:58:49.798Z,67.52
2023-04-20T17:01:16.180Z,67.70
2023-04-20T17:03:43.707Z,69.10
2023-04-20T17:06:10.224Z,68.87
2023-04-20T17:08:36.822Z,69.21
2023-04-20T17:11:04.256Z,70.58
2023-04-20T17:13:34.197Z,72.52
2023-04-20T17:16:00.669Z,72.89
2023-04-20T17:18:27.304Z,73.04
2023-04-20T17:20:53.817Z,72.58
2023-04-20T17:23:22.237Z,72.54
2023-04-20T17:25:48.573Z,71.50
2023-04-20T17:28:15.179Z,72.55
2023-04-20T17:30:41.564Z,70.78
2023-04-20T17:33:07.954Z,71.75
2023-04-20T17:35:36.017Z,73.16
2023-04-20T17:38:04.438Z,73.74
2023-04-20T17:40:30.841Z,74.87
2023-04-20T17:42:59.712Z,74.74
2023-04-20T17:45:26.077Z,74.29
2023-04-20T17:47:52.679Z,75.07
2023-04-20T17:50:19.111Z,73.66
2023-04-20T17:52:45.482Z,73.99
2023-04-20T17:55:11.920Z,73.50
2023-04-20T17:57:38.275Z,73.27
2023-04-20T18:00:05.412Z,72.79
2023-04-20T18:02:34.564Z,73.16
2023-04-20T18:05:01.139Z,73.69
2023-04-20T18:07:27.726Z,72.92
2023-04-20T18:09:54.112Z,72.79
2023-04-20T18:12:20.554Z,73.73
2023-04-20T18:14:47.085Z,73.50
2023-04-20T18:17:15.517Z,73.89
2023-04-20T18:19:41.897Z,74.20
2023-04-20T18:22:08.321Z,73.96
2023-04-20T18:24:36.715Z,73.72
2023-04-20T18:27:03.052Z,72.90
2023-04-20T18:29:29.572Z,73.03
2023-04-20T18:31:56.258Z,72.89
2023-04-20T18:34:22.698Z,73.38
2023-04-20T18:36:49.489Z,73.02
2023-04-20T18:39:16.914Z,72.59
2023-04-20T18:41:43.749Z,72.55
2023-04-20T18:44:10.214Z,72.73
2023-04-20T18:46:36.726Z,72.90
2023-04-20T18:49:03.351Z,72.59
2023-04-20T18:51:29.735Z,72.95
2023-04-20T18:53:56.124Z,72.78
2023-04-20T18:56:22.507Z,73.47
2023-04-20T18:58:49.097Z,73.96
2023-04-20T19:01:16.636Z,74.49
2023-04-20T19:03:44.284Z,74.31
2023-04-20T19:06:13.748Z,74.29
2023-04-20T19:08:42.427Z,74.30
2023-04-20T19:11:08.895Z,74.64
2023-04-20T19:13:35.250Z,74.92
2023-04-20T19:16:02.652Z,75.20
2023-04-20T19:18:29.048Z,75.00
2023-04-20T19:20:55.630Z,75.24
2023-04-20T19:23:22.028Z,75.07
2023-04-20T19:25:48.402Z,75.20
2023-04-20T19:28:14.814Z,74.95
2023-04-20T19:30:41.202Z,75.32
2023-04-20T19:33:07.671Z,75.02
2023-04-20T19:35:34.123Z,75.46
2023-04-20T19:38:00.592Z,75.08
2023-04-20T19:40:27.030Z,74.67
2023-04-20T19:42:53.419Z,74.59
2023-04-20T19:45:19.992Z,74.09
2023-04-20T19:47:48.717Z,73.80
2023-04-20T19:50:15.066Z,74.18
2023-04-20T19:52:41.517Z,74.29
2023-04-20T19:55:07.960Z,74.37
2023-04-20T19:57:34.569Z,74.14
2023-04-20T20:00:01.242Z,73.85
2023-04-20T20:02:29.748Z,73.98
2023-04-20T20:04:56.160Z,73.65
2023-04-20T20:07:24.711Z,73.82
2023-04-20T20:09:53.275Z,73.19
2023-04-20T20:12:19.747Z,72.30
2023-04-20T20:14:46.190Z,71.37
2023-04-20T20:17:12.603Z,70.99
2023-04-20T20:19:38.959Z,71.70
2023-04-20T20:22:05.348Z,72.48
2023-04-20T20:24:31.718Z,72.72
2023-04-20T20:26:59.102Z,72.68
2023-04-20T20:29:25.441Z,72.89
2023-04-20T20:31:51.911Z,72.25
2023-04-20T20:34:18.356Z,71.92
2023-04-20T20:36:45.070Z,71.96
2023-04-20T20:39:11.452Z,72.87
2023-04-20T20:41:37.790Z,73.51
2023-04-20T20:44:06.088Z,73.36
2023-04-20T20:46:32.527Z,73.23
2023-04-20T20:49:00.703Z,73.22
2023-04-20T20:51:27.714Z,72.62
2023-04-20T20:53:54.059Z,72.86
2023-04-20T20:56:20.757Z,73.15
2023-04-20T20:58:47.212Z,73.52
2023-04-20T21:01:13.831Z,73.66
2023-04-20T21:03:40.358Z,73.61
2023-04-20T21:06:06.974Z,73.88
2023-04-20T21:08:33.617Z,73.34
2023-04-20T21:11:00.179Z,73.51
2023-04-20T21:13:34.269Z,73.58
2023-04-20T21:16:00.750Z,73.52
2023-04-20T21:18:27.239Z,73.75
2023-04-20T21:20:53.598Z,73.70
2023-04-20T21:23:19.960Z,73.68
2023-04-20T21:25:46.320Z,73.65
2023-04-20T21:28:12.703Z,73.78
2023-04-20T21:30:39.348Z,73.34
2023-04-20T21:33:06.052Z,73.10
2023-04-20T21:35:32.421Z,72.37
2023-04-20T21:37:58.870Z,73.15
2023-04-20T21:40:25.374Z,73.42
2023-04-20T21:42:52.023Z,74.00
2023-04-20T21:45:18.500Z,74.29
2023-04-20T21:47:44.935Z,74.65
2023-04-20T21:52:51.633Z,74.72
2023-04-20T21:55:18.822Z,75.41
2023-04-20T21:57:45.285Z,75.18
2023-04-20T22:00:11.704Z,74.75
2023-04-20T22:02:38.345Z,74.85
2023-04-20T22:05:04.838Z,75.10
2023-04-20T22:07:31.202Z,75.02
2023-04-20T22:09:57.793Z,74.91
2023-04-20T22:12:36.309Z,74.59
2023-04-20T22:15:09.220Z,74.11
2023-04-20T22:17:36.650Z,73.93
2023-04-20T22:20:04.120Z,74.25
2023-04-20T22:22:30.973Z,74.00
2023-04-20T22:24:57.342Z,73.93
2023-04-20T22:27:23.726Z,74.18
2023-04-20T22:29:52.653Z,74.52
2023-04-20T22:32:19.232Z,74.58
2023-04-20T22:34:45.771Z,74.65
2023-04-20T22:37:12.238Z,74.29
2023-04-20T22:39:38.604Z,74.72
2023-04-20T22:42:07.774Z,74.59
2023-04-20T22:44:37.486Z,75.01
2023-04-20T22:47:03.977Z,75.10
2023-04-20T22:49:30.855Z,75.03
2023-04-20T22:51:57.299Z,75.94
2023-04-20T22:54:23.679Z,75.98
2023-04-20T22:56:50.043Z,75.65
2023-04-20T22:59:16.800Z,76.14
2023-04-20T23:01:43.344Z,76.41
2023-04-20T23:04:09.996Z,76.57
2023-04-20T23:06:36.623Z,76.64
2023-04-20T23:09:02.984Z,77.01
2023-04-20T23:11:29.685Z,76.97
2023-04-20T23:13:58.187Z,76.88
2023-04-20T23:16:24.582Z,76.76
2023-04-20T23:18:51.199Z,77.48
2023-04-20T23:21:17.620Z,78.30
2023-04-20T23:23:44.289Z,78.54
2023-04-20T23:26:11.702Z,78.00
2023-04-20T23:28:38.484Z,78.12
2023-04-20T23:31:05.946Z,77.97
2023-04-20T23:33:32.670Z,77.77
2023-04-20T23:35:59.285Z,77.02
2023-04-20T23:38:26.045Z,77.32
2023-04-20T23:40:52.823Z,76.88
2023-04-20T23:43:20.053Z,77.01
2023-04-20T23:45:46.440Z,76.65
2023-04-20T23:48:13.172Z,76.40
2023-04-20T23:50:40.571Z,76.48
2023-04-20T23:53:07.020Z,76.61
2023-04-20T23:55:33.444Z,76.40
2023-04-20T23:58:02.342Z,76.34
